sensor_id;sensor_type;location;lat;lon;timestamp;temperature;humidity
35085;SHT85;21267;51.032;6.998;2023-03-01T01:14:50;-0.41;76.89
35085;SHT85;21267;51.032;6.998;2023-03-01T01:34:00;-0.88;78.71
35085;SHT85;21267;51.032;6.998;2023-03-01T03:18:25;-1.88;81.61
35085;SHT85;21267;51.032;6.998;2023-03-01T05:47:40;-2.25;83.52
35085;SHT85;21267;51.032;6.998;2023-03-01T07:33:36;2.05;69.24
35085;SHT85;21267;51.032;6.998;2023-03-01T18:58:40;4.66;59.76
35085;SHT85;21267;51.032;6.998;2023-03-01T19:01:18;4.58;59.84
35085;SHT85;21267;51.032;6.998;2023-03-01T19:03:45;4.46;60.28
35085;SHT85;21267;51.032;6.998;2023-03-01T19:06:13;4.52;60.18
35085;SHT85;21267;51.032;6.998;2023-03-01T19:08:40;4.43;60.39
35085;SHT85;21267;51.032;6.998;2023-03-01T19:11:09;4.35;60.54
35085;SHT85;21267;51.032;6.998;2023-03-01T19:13:37;4.35;60.72
35085;SHT85;21267;51.032;6.998;2023-03-01T19:16:09;4.29;60.71
35085;SHT85;21267;51.032;6.998;2023-03-01T19:18:38;4.22;61.12
35085;SHT85;21267;51.032;6.998;2023-03-01T19:21:08;4.19;61.32
35085;SHT85;21267;51.032;6.998;2023-03-01T19:23:37;4.05;61.78
35085;SHT85;21267;51.032;6.998;2023-03-01T19:26:09;4.03;61.70
35085;SHT85;21267;51.032;6.998;2023-03-01T19:28:40;4.02;61.74
35085;SHT85;21267;51.032;6.998;2023-03-01T19:31:12;4.02;62.04
35085;SHT85;21267;51.032;6.998;2023-03-01T19:33:40;4.17;61.86
35085;SHT85;21267;51.032;6.998;2023-03-01T19:36:09;3.96;61.78
35085;SHT85;21267;51.032;6.998;2023-03-01T19:38:41;4.01;62.29
35085;SHT85;21267;51.032;6.998;2023-03-01T19:41:15;3.94;62.37
35085;SHT85;21267;51.032;6.998;2023-03-01T19:43:44;3.99;62.29
35085;SHT85;21267;51.032;6.998;2023-03-01T19:46:12;3.81;62.45
35085;SHT85;21267;51.032;6.998;2023-03-01T19:48:42;3.78;62.56
35085;SHT85;21267;51.032;6.998;2023-03-01T19:51:11;3.87;62.64
35085;SHT85;21267;51.032;6.998;2023-03-01T19:53:43;3.82;62.96
35085;SHT85;21267;51.032;6.998;2023-03-01T19:56:10;3.70;62.84
35085;SHT85;21267;51.032;6.998;2023-03-01T19:58:38;3.73;63.03
35085;SHT85;21267;51.032;6.998;2023-03-01T20:01:13;3.70;63.32
35085;SHT85;21267;51.032;6.998;2023-03-01T20:03:40;3.63;63.55
35085;SHT85;21267;51.032;6.998;2023-03-01T20:06:15;3.75;63.41
35085;SHT85;21267;51.032;6.998;2023-03-01T20:08:43;3.70;63.47
35085;SHT85;21267;51.032;6.998;2023-03-01T20:11:11;3.61;63.29
35085;SHT85;21267;51.032;6.998;2023-03-01T20:13:39;3.47;63.61
35085;SHT85;21267;51.032;6.998;2023-03-01T20:16:06;3.54;62.90
35085;SHT85;21267;51.032;6.998;2023-03-01T20:18:34;3.57;62.96
35085;SHT85;21267;51.032;6.998;2023-03-01T20:21:01;3.58;62.99
35085;SHT85;21267;51.032;6.998;2023-03-01T20:23:43;3.53;63.13
35085;SHT85;21267;51.032;6.998;2023-03-01T20:26:11;3.53;63.58
35085;SHT85;21267;51.032;6.998;2023-03-01T20:28:46;3.53;63.42
35085;SHT85;21267;51.032;6.998;2023-03-01T20:31:14;3.36;63.69
35085;SHT85;21267;51.032;6.998;2023-03-01T20:33:41;3.56;63.40
35085;SHT85;21267;51.032;6.998;2023-03-01T20:36:09;3.53;63.35
35085;SHT85;21267;51.032;6.998;2023-03-01T20:38:37;3.37;63.64
35085;SHT85;21267;51.032;6.998;2023-03-01T20:41:09;3.46;63.48
35085;SHT85;21267;51.032;6.998;2023-03-01T20:43:36;3.48;63.29
35085;SHT85;21267;51.032;6.998;2023-03-01T20:46:11;3.34;63.80
35085;SHT85;21267;51.032;6.998;2023-03-01T20:48:40;3.38;63.75
35085;SHT85;21267;51.032;6.998;2023-03-01T20:51:10;3.34;63.28
35085;SHT85;21267;51.032;6.998;2023-03-01T20:53:37;3.24;63.80
35085;SHT85;21267;51.032;6.998;2023-03-01T20:56:07;3.19;63.87
35085;SHT85;21267;51.032;6.998;2023-03-01T20:58:37;3.16;63.55
35085;SHT85;21267;51.032;6.998;2023-03-01T21:01:04;3.17;63.92
35085;SHT85;21267;51.032;6.998;2023-03-01T21:03:32;3.22;64.94
35085;SHT85;21267;51.032;6.998;2023-03-01T21:06:05;3.20;65.00
35085;SHT85;21267;51.032;6.998;2023-03-01T21:08:36;2.98;65.35
35085;SHT85;21267;51.032;6.998;2023-03-01T21:11:03;2.88;65.67
35085;SHT85;21267;51.032;6.998;2023-03-01T21:13:35;2.72;66.32
35085;SHT85;21267;51.032;6.998;2023-03-01T21:16:09;2.66;66.88
35085;SHT85;21267;51.032;6.998;2023-03-01T21:19:10;2.62;66.65
35085;SHT85;21267;51.032;6.998;2023-03-01T21:38:18;2.49;66.88
